Time;durP1;ratioP1;P1;durP2;ratioP2;P2;SDS_P1;SDS_P2;PMS_P1;PMS_P2;Temp;Humidity;BMP_temperature;BMP_pressure;BME280_temperature;BME280_humidity;BME280_pressure;Samples;Min_cycle;Max_cycle;Signal;HPM_P1;HPM_P2
2021/04/15 00:02:00;;;;;;;9.98;5.28;;;;;;;18.87;57.21;100023.81;4979968;28;20038;-73
2021/04/15 00:04:26;;;;;;;9.27;5.10;;;;;;;18.83;57.74;100027.69;4978576;28;20046;-71
2021/04/15 00:06:53;;;;;;;9.45;4.38;;;;;;;18.78;57.90;100022.25;4977564;28;20065;-72
2021/04/15 00:09:22;;;;;;;7.63;4.53;;;;;;;18.80;57.63;100025.53;4980064;28;20054;-81
2021/04/15 00:11:49;;;;;;;11.00;5.60;;;;;;;18.80;57.64;100026.38;4976787;28;20062;-77
2021/04/15 00:14:19;;;;;;;11.95;5.00;;;;;;;18.75;58.11;100017.28;4974121;28;20411;-77
2021/04/15 00:16:47;;;;;;;12.77;5.95;;;;;;;18.73;57.91;100009.16;4974794;28;20038;-78
2021/04/15 00:19:19;;;;;;;13.20;4.78;;;;;;;18.82;57.71;100020.38;4980153;28;20152;-75
2021/04/15 00:21:47;;;;;;;10.77;5.07;;;;;;;18.81;57.74;100022.38;4974160;28;20193;-79
2021/04/15 00:24:14;;;;;;;8.57;4.28;;;;;;;18.84;58.08;100020.88;4977089;28;20805;-74
2021/04/15 00:26:41;;;;;;;7.70;4.85;;;;;;;18.80;58.07;100025.53;4981735;28;20125;-76
2021/04/15 00:29:07;;;;;;;14.77;6.03;;;;;;;18.74;57.95;100018.47;4975183;28;20047;-75
2021/04/15 00:31:34;;;;;;;10.77;5.50;;;;;;;18.72;58.05;100024.47;4982389;28;20078;-77
2021/04/15 00:34:00;;;;;;;11.63;6.83;;;;;;;18.64;58.38;100031.84;4979212;28;20054;-78
2021/04/15 00:36:27;;;;;;;10.70;5.17;;;;;;;18.57;58.42;100010.97;4979782;28;20054;-78
2021/04/15 00:38:55;;;;;;;8.00;4.70;;;;;;;18.50;58.32;100005.88;4974244;28;20070;-79
2021/04/15 00:41:23;;;;;;;14.20;6.13;;;;;;;18.55;58.73;100018.97;4973621;28;20563;-72
2021/04/15 00:43:50;;;;;;;14.50;5.88;;;;;;;18.53;58.60;100024.13;4979159;28;20046;-73
2021/04/15 00:46:44;;;;;;;10.98;5.75;;;;;;;18.53;58.09;100016.50;4974129;28;20133;-74
2021/04/15 00:49:18;;;;;;;19.43;7.13;;;;;;;18.51;58.68;100018.00;4976333;28;20047;-77
2021/04/15 00:51:51;;;;;;;13.05;5.68;;;;;;;18.44;58.47;100010.91;4972622;28;20054;-75
2021/04/15 00:54:44;;;;;;;9.87;5.13;;;;;;;18.43;58.35;100011.25;4977175;28;20479;-75
2021/04/15 00:57:16;;;;;;;13.17;5.20;;;;;;;18.46;58.40;100016.19;4933666;28;20070;-78
2021/04/15 00:59:43;;;;;;;9.05;4.80;;;;;;;18.49;58.71;100012.69;4937363;29;20106;-77
2021/04/15 01:02:13;;;;;;;13.10;4.67;;;;;;;18.44;58.88;99998.78;4938676;28;20050;-78
2021/04/15 01:04:39;;;;;;;10.57;4.53;;;;;;;18.42;58.53;99993.44;4943048;28;20047;-78
2021/04/15 01:07:06;;;;;;;10.03;4.40;;;;;;;18.30;58.17;99955.84;4947875;28;20063;-80
2021/04/15 01:09:32;;;;;;;8.13;4.63;;;;;;;18.62;58.10;100002.25;4954996;28;20051;-90
2021/04/15 01:12:15;;;;;;;12.17;4.33;;;;;;;18.65;58.16;99995.91;4961246;28;20055;-84
2021/04/15 01:14:50;;;;;;;7.77;3.67;;;;;;;18.72;58.19;100001.03;4946308;28;20451;-73
2021/04/15 01:17:26;;;;;;;8.50;4.15;;;;;;;18.72;57.72;99995.38;4935190;28;20190;-71
2021/04/15 01:20:08;;;;;;;10.35;5.00;;;;;;;18.72;57.44;99990.53;4935143;28;20492;-75
2021/04/15 01:22:45;;;;;;;10.57;4.90;;;;;;;18.56;57.58;99967.69;4940042;28;20113;-76
2021/04/15 01:25:30;;;;;;;16.38;6.45;;;;;;;18.64;57.80;99978.09;4938060;28;20051;-74
2021/04/15 01:28:31;;;;;;;12.25;5.40;;;;;;;18.61;57.78;99977.97;4938505;28;20043;-74
2021/04/15 01:31:05;;;;;;;12.13;5.72;;;;;;;18.54;57.20;99972.88;4939750;28;20051;-75
2021/04/15 01:34:07;;;;;;;11.30;4.75;;;;;;;18.55;57.53;99980.19;4936615;28;20476;-71
2021/04/15 01:36:45;;;;;;;9.57;3.92;;;;;;;18.59;57.01;99992.44;4958568;28;20039;-74
2021/04/15 01:39:20;;;;;;;10.27;4.27;;;;;;;18.47;56.65;99970.63;4933940;28;20043;-78
2021/04/15 01:41:59;;;;;;;9.80;4.03;;;;;;;18.58;56.31;99990.81;4932879;28;20047;-79
2021/04/15 01:44:36;;;;;;;8.93;4.00;;;;;;;18.64;56.07;99995.06;4939670;28;20043;-80
2021/04/15 01:47:07;;;;;;;7.05;2.90;;;;;;;18.59;55.85;99981.13;4937893;28;20082;-81
2021/04/15 01:49:38;;;;;;;8.65;3.15;;;;;;;18.55;55.10;99968.88;4933144;28;20466;-79
2021/04/15 01:52:09;;;;;;;4.60;2.50;;;;;;;18.68;54.75;99976.22;4940984;28;20407;-80
2021/04/15 01:54:47;;;;;;;6.07;2.90;;;;;;;18.67;54.53;99974.59;4939286;28;20052;-78
2021/04/15 01:57:21;;;;;;;9.27;3.20;;;;;;;18.74;54.10;99993.03;4971662;28;20050;-77
2021/04/15 02:00:01;;;;;;;4.38;2.67;;;;;;;18.80;54.33;99994.44;4975166;28;20082;-79
2021/04/15 02:02:52;;;;;;;4.50;2.00;;;;;;;18.77;53.94;99987.50;4977156;28;20522;-69
2021/04/15 02:05:26;;;;;;;9.50;5.13;;;;;;;18.81;54.38;99990.44;4975685;28;20043;-69
2021/04/15 02:08:16;;;;;;;9.40;4.88;;;;;;;18.66;54.51;99981.41;4979797;28;20087;-66
2021/04/15 02:10:52;;;;;;;9.07;4.35;;;;;;;18.53;55.02;99974.06;4970848;28;20051;-68
2021/04/15 02:13:22;;;;;;;9.93;5.75;;;;;;;18.55;55.16;99980.19;4971856;28;20058;-67
2021/04/15 02:15:52;;;;;;;10.82;5.97;;;;;;;18.45;55.26;99986.28;4976793;28;20050;-71
2021/04/15 02:21:10;;;;;;;9.27;5.05;;;;;;;18.34;55.38;99993.53;5018653;22;21183;-69
2021/04/15 02:23:49;;;;;;;10.40;5.40;;;;;;;18.29;55.10;99999.38;4941935;28;20157;-70
2021/04/15 02:26:20;;;;;;;10.47;4.27;;;;;;;18.22;55.48;99997.97;4936286;28;20056;-70
2021/04/15 02:29:03;;;;;;;10.43;5.57;;;;;;;18.18;55.37;100005.47;4936546;28;20062;-69
2021/04/15 02:31:48;;;;;;;10.03;5.17;;;;;;;18.12;55.37;99994.72;4938870;28;20134;-70
2021/04/15 02:34:23;;;;;;;11.70;5.70;;;;;;;18.08;55.45;99997.41;4941035;28;20802;-69
2021/04/15 02:36:54;;;;;;;6.37;3.37;;;;;;;18.03;55.64;99996.81;4938687;28;20408;-69
2021/04/15 02:39:31;;;;;;;11.00;4.00;;;;;;;17.95;55.67;99978.75;4939220;28;20051;-69
2021/04/15 02:42:01;;;;;;;9.93;4.30;;;;;;;18.00;55.60;99989.84;4937918;28;20135;-70
2021/04/15 02:44:35;;;;;;;8.57;4.30;;;;;;;17.83;55.35;99973.84;4946296;28;20047;-69
2021/04/15 02:47:07;;;;;;;7.83;3.83;;;;;;;17.92;55.60;99997.22;4939102;28;20557;-69
2021/04/15 02:49:35;;;;;;;7.53;3.80;;;;;;;17.92;55.58;100000.03;4940919;28;20126;-70
2021/04/15 02:52:24;;;;;;;5.90;2.97;;;;;;;17.90;55.52;100004.38;4948446;28;20417;-69
2021/04/15 02:54:53;;;;;;;7.60;2.60;;;;;;;17.83;55.27;99992.78;4938538;28;20143;-70
2021/04/15 02:57:24;;;;;;;5.55;3.45;;;;;;;17.89;54.89;99997.06;4938869;28;20122;-69
2021/04/15 03:00:21;;;;;;;5.80;2.93;;;;;;;17.89;55.14;99992.25;4940428;28;20135;-69
2021/04/15 03:03:12;;;;;;;4.50;2.87;;;;;;;17.89;54.72;99992.25;4942207;28;20515;-69
2021/04/15 03:05:47;;;;;;;6.70;2.10;;;;;;;17.83;54.23;99987.13;4942517;28;20142;-69
2021/04/15 03:08:19;;;;;;;2.37;1.50;;;;;;;17.87;53.16;99993.75;4947027;28;20071;-68
2021/04/15 03:10:55;;;;;;;5.15;1.48;;;;;;;17.91;52.85;99995.53;4941080;28;20130;-69
2021/04/15 03:13:27;;;;;;;3.87;1.40;;;;;;;17.99;52.26;99985.38;4942721;28;20048;-68
2021/04/15 03:15:59;;;;;;;2.80;1.73;;;;;;;17.96;51.78;99986.03;4940325;28;20047;-70
2021/04/15 03:18:35;;;;;;;2.60;1.63;;;;;;;18.13;51.59;100000.03;4937611;28;20047;-64
2021/04/15 03:21:22;;;;;;;3.90;1.52;;;;;;;17.91;51.20;99964.47;4927081;29;20087;-65
2021/04/15 03:23:54;;;;;;;3.75;1.63;;;;;;;18.14;50.89;99995.22;4932575;29;20139;-66
2021/04/15 03:26:44;;;;;;;3.78;1.77;;;;;;;18.13;50.61;99994.38;4931496;29;20515;-64
2021/04/15 03:29:20;;;;;;;3.90;1.98;;;;;;;18.09;50.63;99990.59;4929712;29;20047;-64
2021/04/15 03:32:02;;;;;;;3.95;2.05;;;;;;;18.14;50.18;99984.72;4931075;29;20420;-63
2021/04/15 03:34:37;;;;;;;4.75;1.65;;;;;;;18.24;49.81;99989.13;4932538;29;20048;-66
2021/04/15 03:37:04;;;;;;;3.90;1.50;;;;;;;18.24;49.57;99983.47;4932643;29;20047;-68
2021/04/15 03:39:35;;;;;;;3.47;1.13;;;;;;;18.23;49.57;99988.31;4933989;29;20485;-68
2021/04/15 03:42:15;;;;;;;;;;;;;;;18.17;49.80;99992.50;4930815;29;20138;-68
2021/04/15 03:44:47;;;;;;;3.95;1.77;;;;;;;18.11;49.46;99988.25;4931069;29;20017;-66
2021/04/15 03:47:43;;;;;;;2.90;1.80;;;;;;;18.08;49.54;99983.28;4931789;29;20051;-66
2021/04/15 03:50:16;;;;;;;6.20;1.80;;;;;;;18.10;49.11;99983.78;4930889;29;20085;-65
2021/04/15 03:53:07;;;;;;;4.40;1.67;;;;;;;18.13;49.52;99985.91;4928949;29;20052;-64
2021/04/15 03:55:44;;;;;;;4.35;1.75;;;;;;;18.12;48.94;99984.25;4928900;29;20130;-65
2021/04/15 03:58:23;;;;;;;3.03;1.90;;;;;;;18.11;48.87;99985.41;4928002;29;20051;-65
2021/04/15 04:00:57;;;;;;;4.33;1.80;;;;;;;18.20;48.75;99994.66;4930676;29;20075;-66
2021/04/15 04:03:26;;;;;;;2.93;1.70;;;;;;;18.09;48.70;99970.81;4934658;29;20135;-66
2021/04/15 04:06:23;;;;;;;13.17;2.43;;;;;;;18.31;49.02;99997.88;4929536;29;20055;-66
2021/04/15 04:09:04;;;;;;;4.17;2.33;;;;;;;18.34;48.92;99988.72;4931894;29;20473;-65
2021/04/15 04:11:35;;;;;;;5.20;2.10;;;;;;;18.40;48.70;99989.34;4931794;29;20058;-63
2021/04/15 04:14:12;;;;;;;2.30;1.67;;;;;;;18.43;48.00;99988.66;4929132;29;20050;-63
2021/04/15 04:16:47;;;;;;;3.22;2.00;;;;;;;18.33;48.24;99960.81;4930645;29;20079;-63
2021/04/15 04:19:26;;;;;;;4.73;2.33;;;;;;;18.42;48.61;99989.78;4931554;29;20405;-63
2021/04/15 04:22:16;;;;;;;3.30;1.55;;;;;;;18.34;48.52;99973.75;4927917;29;20050;-64
2021/04/15 04:24:53;;;;;;;4.93;2.20;;;;;;;18.37;48.95;99978.72;4923932;29;20052;-64
2021/04/15 04:27:26;;;;;;;2.75;1.83;;;;;;;18.35;48.11;99986.72;4928951;29;20043;-65
2021/04/15 04:30:18;;;;;;;2.60;1.50;;;;;;;18.34;48.44;99996.38;4927756;29;20127;-64
2021/04/15 04:32:46;;;;;;;2.13;1.30;;;;;;;18.17;47.72;99992.50;4924909;29;20320;-65
2021/04/15 04:35:22;;;;;;;1.73;1.08;;;;;;;18.11;47.93;99985.41;4933827;29;20568;-65
2021/04/15 04:37:52;;;;;;;1.88;1.17;;;;;;;18.05;47.84;99984.00;4932008;29;20474;-65
2021/04/15 04:40:36;;;;;;;5.37;1.73;;;;;;;17.98;47.51;99983.69;4929027;29;20130;-65
2021/04/15 04:43:25;;;;;;;2.73;1.70;;;;;;;17.96;47.49;99981.22;4927142;29;20086;-65
2021/04/15 04:46:02;;;;;;;2.38;1.38;;;;;;;17.92;47.38;99973.78;4931580;29;20087;-65
2021/04/15 04:48:33;;;;;;;5.27;2.13;;;;;;;17.92;47.33;99987.91;4928563;29;20047;-66
2021/04/15 04:51:26;;;;;;;4.30;1.90;;;;;;;17.83;47.47;99985.13;4930174;29;20047;-66
2021/04/15 04:53:52;;;;;;;2.50;1.30;;;;;;;17.79;47.14;99992.66;4931184;29;20130;-65
2021/04/15 04:56:35;;;;;;;4.07;1.67;;;;;;;17.71;47.06;99988.69;4929042;29;20043;-65
2021/04/15 04:59:29;;;;;;;3.80;1.37;;;;;;;17.58;47.22;99991.75;4929979;29;20138;-65
2021/04/15 05:01:55;;;;;;;5.30;1.70;;;;;;;17.50;46.95;99979.34;4919153;29;20051;-64
2021/04/15 05:04:24;;;;;;;3.47;1.70;;;;;;;17.55;46.55;99986.81;4929539;29;20132;-63
2021/04/15 05:06:51;;;;;;;3.58;1.80;;;;;;;17.61;46.58;100003.19;4929988;29;20055;-62
2021/04/15 05:09:37;;;;;;;2.00;1.10;;;;;;;17.60;46.41;99995.88;4931307;29;20044;-62
2021/04/15 05:12:09;;;;;;;2.47;1.43;;;;;;;17.64;46.29;99996.88;4925665;29;20067;-63
2021/04/15 05:14:36;;;;;;;2.60;1.63;;;;;;;17.50;46.27;99997.13;4929987;29;20048;-63
2021/04/15 05:17:13;;;;;;;2.73;0.77;;;;;;;17.55;46.67;100003.75;4930818;29;20047;-64
2021/04/15 05:19:39;;;;;;;3.70;1.73;;;;;;;17.60;46.13;100004.34;4926634;29;20129;-61
2021/04/15 05:22:12;;;;;;;2.77;1.40;;;;;;;17.59;46.22;99993.41;4927463;29;20058;-61
2021/04/15 05:24:58;;;;;;;1.77;1.17;;;;;;;17.71;46.41;100002.81;4930965;29;20052;-61
2021/04/15 05:27:27;;;;;;;5.10;2.00;;;;;;;17.84;46.04;100017.84;4928455;29;20054;-59
2021/04/15 05:30:24;;;;;;;4.95;2.10;;;;;;;17.86;46.32;100014.69;4924817;29;20508;-58
2021/04/15 05:32:51;;;;;;;2.67;1.30;;;;;;;17.90;46.12;100010.00;4913435;29;20111;-58
2021/04/15 05:35:25;;;;;;;3.67;1.80;;;;;;;17.86;45.89;100021.16;4924341;29;20074;-55
2021/04/15 05:37:53;;;;;;;9.90;1.73;;;;;;;17.83;45.67;100016.22;4925715;29;20102;-57
2021/04/15 05:40:20;;;;;;;3.33;1.70;;;;;;;17.77;46.07;100021.22;4924464;29;20048;-57
2021/04/15 05:43:06;;;;;;;2.33;1.43;;;;;;;17.73;45.74;100011.75;4925348;29;20147;-57
2021/04/15 05:45:36;;;;;;;5.37;1.80;;;;;;;17.81;45.93;100029.84;4922478;29;20059;-58
2021/04/15 05:48:06;;;;;;;5.55;2.03;;;;;;;17.73;45.95;100034.34;4924930;29;20070;-56
2021/04/15 05:50:48;;;;;;;;;;;;;;;17.79;45.97;100043.47;4926202;29;20557;-59
2021/04/15 05:53:23;;;;;;;3.00;1.40;;;;;;;17.45;45.80;100044.47;4922559;29;19981;-57
2021/04/15 05:55:54;;;;;;;5.20;2.70;;;;;;;17.22;45.79;100033.44;4926372;29;20052;-58
2021/04/15 05:58:26;;;;;;;6.93;2.17;;;;;;;17.04;45.14;100040.31;4927898;29;20139;-58
2021/04/15 06:00:59;;;;;;;2.23;1.03;;;;;;;16.89;45.26;100049.28;4929182;29;20048;-59
2021/04/15 06:03:40;;;;;;;3.23;1.77;;;;;;;16.94;44.79;100047.13;4929173;29;20416;-63
2021/04/15 06:06:11;;;;;;;3.03;1.50;;;;;;;16.85;44.67;100045.50;4927686;29;20043;-64
2021/04/15 06:08:41;;;;;;;2.87;0.50;;;;;;;16.93;44.57;100051.13;4926338;29;20162;-62
2021/04/15 06:11:28;;;;;;;2.30;1.17;;;;;;;16.74;44.35;100056.25;4924383;29;20055;-57
2021/04/15 06:14:01;;;;;;;1.20;0.93;;;;;;;16.69;44.18;100054.47;4898097;29;20442;-55
2021/04/15 06:16:43;;;;;;;5.67;1.63;;;;;;;16.59;43.92;100057.63;4929328;29;20497;-57
2021/04/15 06:19:17;;;;;;;3.57;1.17;;;;;;;16.66;43.73;100062.75;4930339;28;20131;-57
2021/04/15 06:21:47;;;;;;;4.00;1.93;;;;;;;16.77;43.84;100059.28;4927982;29;20044;-55
2021/04/15 06:24:29;;;;;;;0.82;0.80;;;;;;;16.80;43.01;100078.34;4929515;29;20044;-52
2021/04/15 06:27:00;;;;;;;3.13;1.87;;;;;;;16.87;43.05;100065.75;4928430;29;20059;-54
2021/04/15 06:29:36;;;;;;;4.80;1.33;;;;;;;17.00;42.99;100073.19;4926445;29;20473;-55
2021/04/15 06:32:04;;;;;;;6.63;1.03;;;;;;;16.85;42.91;100068.03;4927856;29;20489;-55
2021/04/15 06:34:32;;;;;;;2.27;1.53;;;;;;;16.73;42.92;100080.81;4932878;29;20131;-57
2021/04/15 06:37:19;;;;;;;1.57;1.00;;;;;;;16.76;43.30;100074.53;4928375;29;20420;-57
2021/04/15 06:39:50;;;;;;;1.77;1.17;;;;;;;16.74;43.23;100087.28;4928817;29;20043;-56
2021/04/15 06:42:35;;;;;;;1.63;1.53;;;;;;;16.69;43.31;100079.84;4927759;29;20056;-58
2021/04/15 06:45:29;;;;;;;2.30;1.30;;;;;;;16.90;42.95;100084.81;4929667;29;20055;-53
2021/04/15 06:48:33;;;;;;;3.73;1.57;;;;;;;17.04;42.54;100093.91;4927327;29;20086;-58
2021/04/15 06:51:28;;;;;;;2.43;1.83;;;;;;;17.05;42.54;100093.56;4929337;29;20481;-56
2021/04/15 06:54:01;;;;;;;2.47;1.30;;;;;;;17.12;41.92;100090.22;4933270;29;20131;-57
2021/04/15 06:57:01;;;;;;;3.93;0.70;;;;;;;17.33;41.80;100095.13;4927598;29;20167;-57
2021/04/15 06:59:46;;;;;;;1.75;1.35;;;;;;;17.41;41.55;100100.78;4929845;29;20130;-57
2021/04/15 07:02:49;;;;;;;4.07;1.70;;;;;;;17.53;41.29;100108.50;4927354;29;20048;-57
2021/04/15 07:05:24;;;;;;;3.00;1.40;;;;;;;17.42;41.24;100099.59;4926734;29;20084;-57
2021/04/15 07:07:59;;;;;;;2.00;1.17;;;;;;;17.39;41.22;100113.56;4933180;29;20130;-57
2021/04/15 07:10:34;;;;;;;1.70;1.27;;;;;;;17.46;41.06;100102.56;4928046;29;20067;-55
2021/04/15 07:13:19;;;;;;;1.47;0.90;;;;;;;17.44;40.97;100107.75;4925366;29;20055;-57
2021/04/15 07:15:55;;;;;;;3.27;1.87;;;;;;;17.45;41.13;100107.38;4930459;29;20060;-58
2021/04/15 07:18:58;;;;;;;1.75;1.17;;;;;;;17.33;41.46;100103.59;4928556;29;20560;-59
2021/04/15 07:21:46;;;;;;;3.10;0.80;;;;;;;17.26;41.58;100107.81;4894268;29;20519;-58
2021/04/15 07:24:27;;;;;;;9.57;1.33;;;;;;;17.08;41.86;100106.16;4894516;29;20123;-56
2021/04/15 07:27:30;;;;;;;0.70;0.70;;;;;;;17.13;41.51;100114.47;4893655;29;20049;-57
2021/04/15 07:30:34;;;;;;;4.25;2.05;;;;;;;17.52;41.18;100124.63;4894959;29;20052;-55
2021/04/15 07:33:09;;;;;;;2.80;1.70;;;;;;;17.85;40.24;100120.38;4896872;29;20052;-59
2021/04/15 07:36:00;;;;;;;2.85;2.17;;;;;;;18.09;39.99;100117.75;4897072;29;20061;-57
2021/04/15 07:38:57;;;;;;;3.28;2.05;;;;;;;18.48;39.60;100129.78;4892335;29;20059;-56
2021/04/15 07:41:47;;;;;;;5.40;3.58;;;;;;;19.12;38.82;100120.09;4887840;29;20059;-56
2021/04/15 07:44:37;;;;;;;7.00;2.85;;;;;;;19.42;37.97;100126.44;4895808;29;20052;-58
2021/04/15 07:47:13;;;;;;;6.20;3.20;;;;;;;19.97;38.02;100129.97;4893897;29;20720;-58
2021/04/15 07:49:55;;;;;;;1.90;1.52;;;;;;;20.40;36.88;100137.81;4894604;29;20049;-58
2021/04/15 07:52:56;;;;;;;5.82;2.30;;;;;;;20.46;36.67;100129.91;4891299;29;20143;-57
2021/04/15 07:55:50;;;;;;;2.28;1.55;;;;;;;20.53;36.14;100142.31;4886535;29;20049;-56
2021/04/15 07:58:49;;;;;;;3.90;2.13;;;;;;;20.81;35.82;100145.19;4889142;29;20135;-54
2021/04/15 08:01:34;;;;;;;3.87;2.40;;;;;;;21.00;35.25;100152.25;4888771;29;20508;-52
2021/04/15 08:04:10;;;;;;;5.55;2.33;;;;;;;20.74;34.39;100164.84;4884769;29;20690;-56
2021/04/15 08:06:59;;;;;;;3.50;1.67;;;;;;;20.82;34.33;100160.22;4888938;29;20057;-57
2021/04/15 08:09:59;;;;;;;3.70;1.50;;;;;;;20.63;34.25;100151.53;4886936;29;20151;-57
2021/04/15 08:13:02;;;;;;;6.50;2.17;;;;;;;20.74;34.62;100158.34;4884759;29;20087;-55
2021/04/15 08:16:02;;;;;;;3.95;2.15;;;;;;;21.08;34.45;100154.09;4888684;29;20429;-57
2021/04/15 08:18:31;;;;;;;5.00;2.35;;;;;;;21.54;34.19;100163.13;4892417;29;20049;-56
2021/04/15 08:21:12;;;;;;;1.17;0.93;;;;;;;21.45;33.26;100162.47;4919289;29;20147;-54
2021/04/15 08:23:48;;;;;;;4.53;1.83;;;;;;;21.51;33.22;100167.53;4923774;29;20058;-56
2021/04/15 08:26:31;;;;;;;2.42;1.75;;;;;;;21.18;33.29;100164.09;4926203;29;20067;-56
2021/04/15 08:29:21;;;;;;;5.28;2.35;;;;;;;21.61;33.27;100165.34;4929001;29;20289;-57
2021/04/15 08:32:11;;;;;;;3.53;1.75;;;;;;;21.79;32.90;100169.47;4928686;29;20143;-62
2021/04/15 08:35:20;;;;;;;3.55;2.08;;;;;;;21.96;32.82;100163.44;4923626;29;20552;-57
2021/04/15 08:37:49;;;;;;;6.72;2.30;;;;;;;22.44;32.27;100160.56;4835075;29;20435;-56
2021/04/15 08:40:31;;;;;;;4.23;2.33;;;;;;;22.60;31.95;100174.75;4912876;29;20054;-57
2021/04/15 08:43:22;;;;;;;3.40;2.22;;;;;;;22.84;31.67;100156.59;4924877;29;20388;-56
2021/04/15 08:45:55;;;;;;;2.15;1.60;;;;;;;23.28;31.78;100154.28;4926251;29;20682;-59
2021/04/15 08:48:27;;;;;;;1.67;1.05;;;;;;;23.37;31.57;100174.81;4926804;29;20142;-60
2021/04/15 08:51:35;;;;;;;1.92;1.73;;;;;;;22.84;31.17;100159.44;4925680;29;20486;-60
2021/04/15 08:54:10;;;;;;;2.50;1.70;;;;;;;22.69;31.51;100139.16;4924865;29;20055;-60
2021/04/15 08:56:47;;;;;;;7.13;2.22;;;;;;;23.01;31.42;100153.34;4922895;29;20043;-60
2021/04/15 08:59:41;;;;;;;7.95;2.55;;;;;;;23.38;30.93;100147.13;4925054;29;20050;-60
2021/04/15 09:02:21;;;;;;;3.05;2.10;;;;;;;23.51;30.72;100170.59;4928589;29;20074;-59
2021/04/15 09:05:26;;;;;;;3.72;2.15;;;;;;;23.87;30.64;100149.31;4927177;29;20505;-61
2021/04/15 09:07:59;;;;;;;5.15;2.30;;;;;;;24.28;30.18;100166.69;4927008;29;20074;-60
2021/04/15 09:10:29;;;;;;;2.80;1.77;;;;;;;24.24;29.94;100155.22;4924690;29;20206;-60
2021/04/15 09:12:58;;;;;;;7.80;2.33;;;;;;;24.44;30.32;100177.97;4926233;29;20051;-59
2021/04/15 09:15:52;;;;;;;4.85;2.63;;;;;;;24.30;29.90;100145.13;4929275;29;20043;-61
2021/04/15 09:18:33;;;;;;;8.38;2.70;;;;;;;24.64;30.09;100181.53;4926023;29;20051;-60
2021/04/15 09:21:37;;;;;;;4.45;1.75;;;;;;;24.55;29.22;100181.84;4923578;29;20062;-60
2021/04/15 09:24:26;;;;;;;2.85;2.00;;;;;;;24.18;29.54;100173.88;4926028;29;20509;-60
2021/04/15 09:27:29;;;;;;;6.53;2.55;;;;;;;24.43;29.43;100177.16;4928931;29;20054;-60
2021/04/15 09:30:17;;;;;;;5.03;2.30;;;;;;;24.64;29.03;100168.09;4924090;29;20126;-59
2021/04/15 09:33:09;;;;;;;4.90;1.85;;;;;;;24.83;29.30;100176.53;4921955;29;20413;-59
2021/04/15 09:36:05;;;;;;;4.15;2.70;;;;;;;25.12;28.74;100188.38;4920494;29;20044;-59
2021/04/15 09:39:02;;;;;;;12.75;3.40;;;;;;;26.13;29.01;100194.00;4924695;29;20464;-60
2021/04/15 09:42:01;;;;;;;4.93;2.42;;;;;;;26.64;28.01;100198.94;4927454;29;20044;-59
2021/04/15 09:44:43;;;;;;;5.38;3.10;;;;;;;26.70;27.49;100188.75;4926289;29;20063;-60
2021/04/15 09:47:47;;;;;;;9.48;4.45;;;;;;;26.50;27.38;100204.56;4931185;29;20062;-59
2021/04/15 09:50:33;;;;;;;6.50;1.67;;;;;;;26.44;27.46;100200.38;4927475;29;20057;-60
2021/04/15 09:53:21;;;;;;;2.05;1.50;;;;;;;25.77;27.77;100207.09;4925184;29;20043;-60
2021/04/15 09:56:03;;;;;;;7.95;2.80;;;;;;;25.51;28.45;100202.34;4929175;29;20060;-59
2021/04/15 09:58:45;;;;;;;2.50;1.40;;;;;;;25.79;27.97;100203.84;4928041;29;20059;-59
2021/04/15 10:01:20;;;;;;;2.70;1.83;;;;;;;25.67;27.82;100179.22;4929172;29;20568;-59
2021/04/15 10:03:52;;;;;;;7.63;2.60;;;;;;;25.43;27.50;100204.25;4923377;29;20485;-59
2021/04/15 10:06:42;;;;;;;4.13;2.15;;;;;;;25.63;27.74;100209.81;4925370;29;20059;-59
2021/04/15 10:09:23;;;;;;;7.13;2.40;;;;;;;25.90;27.88;100182.75;4924767;29;20044;-60
2021/04/15 10:12:08;;;;;;;3.47;2.53;;;;;;;26.44;27.45;100204.06;4925611;29;20126;-59
2021/04/15 10:15:06;;;;;;;4.47;2.47;;;;;;;27.10;27.29;100215.56;4923513;29;20130;-61
2021/04/15 10:17:55;;;;;;;5.80;3.00;;;;;;;27.10;27.27;100198.38;4926312;29;20058;-60
2021/04/15 10:20:30;;;;;;;6.95;2.20;;;;;;;27.15;26.84;100220.97;4925853;29;20442;-60
2021/04/15 10:23:35;;;;;;;8.60;3.13;;;;;;;27.45;27.07;100202.63;4926961;29;20043;-61
2021/04/15 10:26:26;;;;;;;4.55;2.55;;;;;;;28.11;26.96;100199.56;4927420;29;20092;-59
2021/04/15 10:29:11;;;;;;;7.63;2.97;;;;;;;28.73;26.81;100212.69;4925240;29;20075;-59
2021/04/15 10:32:12;;;;;;;7.30;2.33;;;;;;;28.19;25.54;100214.72;4927677;29;20052;-60
2021/04/15 10:34:59;;;;;;;4.68;2.67;;;;;;;27.90;26.02;100203.22;4924574;29;20099;-60
2021/04/15 10:37:44;;;;;;;4.85;2.60;;;;;;;27.42;25.80;100203.47;4927356;29;20075;-60
2021/04/15 10:40:22;;;;;;;4.38;2.60;;;;;;;27.49;25.56;100209.25;4928881;29;20043;-61
2021/04/15 10:43:07;;;;;;;6.38;2.92;;;;;;;27.42;26.19;100220.69;4927309;29;20054;-59
2021/04/15 10:45:42;;;;;;;4.38;2.53;;;;;;;27.54;26.07;100223.16;4936632;29;20485;-59
2021/04/15 10:48:31;;;;;;;3.80;2.25;;;;;;;27.88;26.31;100208.53;4927709;29;20058;-58
2021/04/15 10:51:05;;;;;;;2.70;2.13;;;;;;;28.02;26.17;100225.78;4927971;29;20052;-59
2021/04/15 10:53:50;;;;;;;7.10;2.72;;;;;;;27.85;26.01;100215.09;4927670;29;20138;-60
2021/04/15 10:56:23;;;;;;;7.15;3.03;;;;;;;28.75;25.96;100228.28;4924760;29;20115;-60
2021/04/15 10:58:54;;;;;;;8.50;3.13;;;;;;;29.04;25.08;100219.63;4924279;29;20048;-60
2021/04/15 11:01:29;;;;;;;4.82;3.33;;;;;;;29.76;24.88;100228.81;4927064;29;20047;-60
2021/04/15 11:04:00;;;;;;;3.97;2.70;;;;;;;30.55;23.58;100210.97;4928543;29;20048;-60
2021/04/15 11:06:33;;;;;;;3.53;1.77;;;;;;;30.18;22.71;100221.97;4928425;29;20054;-60
2021/04/15 11:09:31;;;;;;;5.68;2.28;;;;;;;28.91;23.93;100213.47;4930982;29;20572;-60
2021/04/15 11:12:14;;;;;;;4.15;1.95;;;;;;;28.16;24.49;100207.75;4931351;29;20086;-60
2021/04/15 11:14:47;;;;;;;5.40;2.95;;;;;;;27.81;25.55;100202.78;4931237;29;20106;-60
2021/04/15 11:17:41;;;;;;;4.78;2.83;;;;;;;27.40;25.82;100203.03;4929545;29;20055;-60
2021/04/15 11:20:21;;;;;;;6.38;3.38;;;;;;;27.70;26.49;100201.91;4925581;29;20321;-60
2021/04/15 11:23:05;;;;;;;7.55;2.42;;;;;;;28.08;25.74;100208.97;4929564;29;20083;-61
2021/04/15 11:25:42;;;;;;;6.22;3.20;;;;;;;28.03;25.66;100207.31;4930040;29;20043;-60
2021/04/15 11:28:17;;;;;;;2.92;2.05;;;;;;;27.72;26.09;100206.00;4929043;29;20043;-61
2021/04/15 11:30:57;;;;;;;3.50;1.98;;;;;;;27.83;26.30;100209.78;4929130;29;20441;-59
2021/04/15 11:33:34;;;;;;;4.28;2.50;;;;;;;27.92;26.35;100209.34;4925514;29;20099;-59
2021/04/15 11:36:12;;;;;;;4.53;2.53;;;;;;;28.47;26.24;100196.69;4929499;29;20416;-59
2021/04/15 11:38:40;;;;;;;5.68;2.92;;;;;;;28.73;25.87;100204.88;4927312;29;20059;-59
2021/04/15 11:41:13;;;;;;;6.20;2.47;;;;;;;29.49;25.85;100191.09;4929884;29;20471;-59
2021/04/15 11:43:40;;;;;;;5.28;2.47;;;;;;;30.43;25.30;100210.25;4932022;29;20052;-58
2021/04/15 11:46:33;;;;;;;4.63;1.92;;;;;;;30.40;24.25;100188.06;4926805;29;20047;-59
2021/04/15 11:49:13;;;;;;;6.43;2.10;;;;;;;29.91;23.99;100194.97;4926558;29;20507;-59
2021/04/15 11:52:00;;;;;;;5.72;2.35;;;;;;;29.87;24.19;100183.50;4930112;29;20050;-59
2021/04/15 11:54:36;;;;;;;3.42;2.20;;;;;;;29.82;24.15;100183.97;4927015;29;20072;-59
2021/04/15 11:57:31;;;;;;;7.78;2.53;;;;;;;29.93;23.70;100190.44;4924363;29;20607;-59
2021/04/15 12:00:01;;;;;;;4.70;2.63;;;;;;;30.10;23.76;100179.22;4922556;29;20051;-59
2021/04/15 12:02:52;;;;;;;2.55;1.77;;;;;;;30.33;23.68;100181.53;4925801;29;20584;-58
2021/04/15 12:05:27;;;;;;;8.60;2.42;;;;;;;31.04;23.13;100188.66;4927201;29;20152;-59
2021/04/15 12:08:07;;;;;;;6.72;2.35;;;;;;;31.72;22.72;100173.38;4926978;29;20180;-60
2021/04/15 12:10:41;;;;;;;2.00;1.48;;;;;;;32.15;21.92;100147.56;4931111;29;20421;-59
2021/04/15 12:13:23;;;;;;;4.90;2.58;;;;;;;32.54;21.95;100169.19;4927562;29;20126;-60
2021/04/15 12:16:04;;;;;;;3.55;2.42;;;;;;;33.25;20.57;100161.22;4930032;29;20044;-60
2021/04/15 12:18:47;;;;;;;6.78;2.22;;;;;;;34.11;20.77;100165.06;4928234;29;20146;-59
2021/04/15 12:21:26;;;;;;;3.30;2.67;;;;;;;35.42;20.35;100161.91;4929520;29;20055;-60
2021/04/15 12:24:22;;;;;;;5.72;2.65;;;;;;;36.06;18.96;100157.84;4926334;29;20044;-59
2021/04/15 12:27:14;;;;;;;4.10;3.03;;;;;;;35.59;19.11;100161.44;4924837;29;20063;-59
2021/04/15 12:29:42;;;;;;;5.63;3.05;;;;;;;36.34;18.84;100158.16;4926359;29;20047;-60